Portada
METAR-TAF:

METAR-TAF

Aeroports :

Zielona Góra, Polònia

latitud: 52-08-19N, longitud: 015-47-55E, altitud: 59 m

Observació

L'informe es va fer fa 32 minuts, a les 10:00 UTC
Vent 8 kt del Nord/Nord-Est, variant entre Nord/Nord-Oest i Est
Temperatura 19°C
Humitat 37%
Pressió 1008 hPa
Visibilitat 10 km o més
sense núvols per sota de 1500 mi sense presència de cumulonimbus.

METAR: EPZG 031000Z 02008KT 330V090 CAVOK 19/04 Q1008

Hora: 12:32 (10:32 UTC)

Pronòstic

L'informe es va fer fa 2 hores i 2 minuts, a les 08:30 UTC
Pronòstic vàlid del 03 a les 09 UTC al 03 a les 18 UTC
Vent 6 kt del Nord/Nord-Oest
Visibilitat 10 km o més
sense núvols per sota de 1500 mi sense presència de cumulonimbus.
Evolucionant progressivament
l' 03 a les 09 UTC al 03 a les 12 UTC
Vent 10 kt del Est

TAF: EPZG 030830Z 0309/0318 34006KT CAVOK BECMG 0309/0312 09010KT

Observacions i pronòstics meteorològics de més de 4000 aeroports (METAR i TAF).

Les estacions disponibles són els punts grocs i vermells al mapa.

Posi el ratolí al punt desitjat per veure el nom de l'estació.

Feu clic per veure les observacions i els pronòstics meteorològics.

Per canviar el mapa: feu clic els botons verds amb una creu de color negre per apropar; al botó verd amb un guió per allunyar la imatge; o en les fletxes verdes per a mapes adjacents.


METAR-TAF: